Kware, Nigeria
Current Conditions -  °F | °C
As of 2:00 PM on Friday 24 Oct 2014 (Local Time) from DRRN Reporting Station
Clear Clear  
Wind Chill: 100°   Ceiling: Unl
Heat Index: 100°   Visibility: 5mi
Dew Point: 48°   Wind: 3mph
Humidity: 17%   Direction: NA
Pressure: 29.85"   Gusts: NA
Location:  13.21°N, 5.27°E
Report Text: DRRN 241300Z VRB03KT 8000 NSC 38/09 Q1011 NOSIG
Loading
Personal Weather Stations






























Interactive Weather Map
Tropical Storm Tracking
New forecast layout! Learn more

10-Day Weather Forecast

Advertisements
Track Severe Weather on mobile